首页
METAR-TAF:

METAR-TAF

机场 :

紐華克自由國際機場

紐華克, 新泽西州, 美国

纬度: 40-40-57N, 经度: 074-10-10W, 海拔: 5米

当前天气观测

该预报发布于17分钟前的04:51 UTC
风速15节,风向北转西北
温度 7°C
湿度 45%
气压 1008 hPa
能見度: 16.1公里
少量云层高于25000英尺

METAR: KEWR 020451Z 33015KT 10SM FEW250 07/M04 A2977 RMK AO2 SLP080 T00721039 401390039

时间: 01:08 (05:08 UTC)

预报

该预报发布于2小时和50分钟前的02:18 UTC
预报有效从02日的 02点(UTC)到 03日的 06点(UTC)
风速10节,风向
能見度: 10公里
少量云层高于7000英尺
从 02日的 1000点(UTC)
风速13节,风向北转西北,有时为21节阵风
能見度: 10公里
少量云层高于25000英尺
从 02日的 1300点(UTC)
风速18节,风向西北,有时为26节阵风
能見度: 10公里
少量云层高于5000英尺
少量云层高于25000英尺
从 02日的 1600点(UTC)
风速20节,风向西北,有时为28节阵风
能見度: 10公里
少量云层高于5000英尺
少量云层高于25000英尺
从 02日的 1900点(UTC)
风速22节,风向西北,有时为30节阵风
能見度: 10公里
少量云层高于6000英尺
少量云层高于25000英尺
从 03日的 0100点(UTC)
风速22节,风向西北,有时为30节阵风
能見度: 10公里
多云层高于5000英尺

TAF: KEWR 020218Z 0202/0306 35010KT P6SM FEW070 FM021000 33013G21KT P6SM FEW250 FM021300 32018G26KT P6SM FEW050 FEW250 FM021600 32020G28KT P6SM FEW050 FEW250 FM021900 31022G30KT P6SM FEW060 FEW250 FM030100 31022G30KT P6SM BKN050

超过4000个机场的气象观测和天气预报(METAR&TAF报告)。

可查询的气象台以黄色和红色小点在地图上表示。

将鼠标移到小点上方,可查看气象台名称。

然后点击查看天气观测和预报。

如需切换地图:点击带黑十字的绿色按钮放大地图;点击带横线的绿色按钮缩小地图;或者点击绿色箭头查看邻近地区的地图。


METAR-TAF: